Time;durP1;ratioP1;P1;durP2;ratioP2;P2;SDS_P1;SDS_P2;PMS_P1;PMS_P2;Temp;Humidity;BMP_temperature;BMP_pressure;BME280_temperature;BME280_humidity;BME280_pressure;Samples;Min_cycle;Max_cycle;Signal;HPM_P1;HPM_P2
2020/12/15 00:00:45;;;;;;;1.70;1.50;;;4.30;98.00;;;;;;5050305;28;20516;-63
2020/12/15 00:03:11;;;;;;;3.37;1.30;;;4.30;98.00;;;;;;5052775;28;20493;-61
2020/12/15 00:05:39;;;;;;;1.50;1.17;;;4.30;98.00;;;;;;5051454;28;20457;-62
2020/12/15 00:08:05;;;;;;;1.20;1.00;;;4.30;98.00;;;;;;5053012;28;20449;-61
2020/12/15 00:10:32;;;;;;;2.23;1.20;;;4.20;98.00;;;;;;5051171;28;20457;-61
2020/12/15 00:12:58;;;;;;;1.43;1.20;;;4.20;98.00;;;;;;5053033;28;20990;-61
2020/12/15 00:15:25;;;;;;;1.30;1.20;;;4.30;98.00;;;;;;5051004;28;20461;-61
2020/12/15 00:17:51;;;;;;;1.20;1.20;;;4.20;98.00;;;;;;5052825;28;20552;-61
2020/12/15 00:20:17;;;;;;;1.20;1.10;;;4.10;98.00;;;;;;5050821;28;20827;-62
2020/12/15 00:22:46;;;;;;;1.20;1.10;;;4.00;98.00;;;;;;5052746;28;20826;-61
2020/12/15 00:25:13;;;;;;;2.17;1.33;;;4.10;98.00;;;;;;5050666;28;21000;-61
2020/12/15 00:27:41;;;;;;;1.20;1.00;;;4.00;98.00;;;;;;5052319;28;20454;-62
2020/12/15 00:30:07;;;;;;;1.20;1.10;;;4.10;98.00;;;;;;5049341;28;20457;-62
2020/12/15 00:32:34;;;;;;;1.20;1.00;;;4.10;98.00;;;;;;5052556;28;20507;-62
2020/12/15 00:35:01;;;;;;;1.20;1.10;;;4.10;98.00;;;;;;5050170;28;20511;-62
2020/12/15 00:37:27;;;;;;;1.53;1.30;;;4.10;98.00;;;;;;5051486;28;20458;-62
2020/12/15 00:39:55;;;;;;;1.20;1.00;;;4.10;98.00;;;;;;5048237;28;20449;-61
2020/12/15 00:42:21;;;;;;;1.30;1.10;;;4.10;98.00;;;;;;5051466;28;20546;-61
2020/12/15 00:44:49;;;;;;;2.73;1.53;;;4.10;98.00;;;;;;5050448;28;20462;-62
2020/12/15 00:47:15;;;;;;;1.30;1.23;;;4.20;98.00;;;;;;5052079;28;20445;-61
2020/12/15 00:49:42;;;;;;;1.20;1.00;;;4.20;98.00;;;;;;5049601;28;20828;-61
2020/12/15 00:52:08;;;;;;;1.20;0.90;;;4.20;98.00;;;;;;5051879;28;20456;-61
2020/12/15 00:54:35;;;;;;;5.30;1.60;;;4.20;98.00;;;;;;5050398;28;21053;-61
2020/12/15 00:57:02;;;;;;;1.50;1.30;;;4.30;98.00;;;;;;5051825;28;20449;-62
2020/12/15 00:59:36;;;;;;;1.43;1.30;;;4.30;98.00;;;;;;5050123;28;20456;-62
2020/12/15 01:02:04;;;;;;;1.20;1.03;;;4.30;98.00;;;;;;5051707;28;20972;-61
2020/12/15 01:04:30;;;;;;;1.30;1.23;;;4.30;98.00;;;;;;5049951;28;20531;-61
2020/12/15 01:06:57;;;;;;;2.67;1.70;;;4.30;98.00;;;;;;5051574;28;20872;-61
2020/12/15 01:09:23;;;;;;;1.53;1.20;;;4.20;98.00;;;;;;5050101;28;20449;-61
2020/12/15 01:11:50;;;;;;;1.37;1.20;;;4.20;98.00;;;;;;5051418;28;20498;-61
2020/12/15 01:14:17;;;;;;;1.73;1.53;;;4.20;98.00;;;;;;5051527;28;20525;-62
2020/12/15 01:16:44;;;;;;;1.20;1.00;;;4.20;98.00;;;;;;5050082;28;20508;-61
2020/12/15 01:19:10;;;;;;;1.30;1.23;;;4.30;98.00;;;;;;5050196;28;20453;-61
2020/12/15 01:21:37;;;;;;;1.33;1.20;;;4.30;98.00;;;;;;5049564;28;20454;-61
2020/12/15 01:24:03;;;;;;;3.53;2.80;;;4.30;98.00;;;;;;5051352;28;20457;-61
2020/12/15 01:26:30;;;;;;;1.43;1.37;;;4.40;98.00;;;;;;5049551;28;20461;-61
2020/12/15 01:28:56;;;;;;;1.20;1.00;;;4.50;98.00;;;;;;5051647;28;20997;-61
2020/12/15 01:31:25;;;;;;;2.17;1.33;;;4.50;98.00;;;;;;5049873;28;20514;-62
2020/12/15 01:33:52;;;;;;;1.50;1.40;;;4.50;98.00;;;;;;5051430;28;20460;-62
2020/12/15 01:36:26;;;;;;;1.50;1.43;;;4.50;98.00;;;;;;5049546;28;20512;-63
2020/12/15 01:38:53;;;;;;;1.50;1.20;;;4.50;98.00;;;;;;5051132;28;20458;-62
2020/12/15 01:41:21;;;;;;;2.07;1.37;;;4.70;98.00;;;;;;5049417;28;20450;-61
2020/12/15 01:43:55;;;;;;;1.60;1.43;;;4.70;98.00;;;;;;5051247;28;20485;-63
2020/12/15 01:46:21;;;;;;;1.30;1.20;;;4.90;98.00;;;;;;5049478;28;20448;-62
2020/12/15 01:48:49;;;;;;;1.50;1.23;;;4.70;98.00;;;;;;5051714;28;20968;-61
2020/12/15 01:51:16;;;;;;;1.33;1.17;;;4.60;98.00;;;;;;5049400;28;20519;-61
2020/12/15 01:53:44;;;;;;;1.50;1.20;;;4.60;98.00;;;;;;5050089;28;20464;-61
2020/12/15 01:56:11;;;;;;;1.20;1.20;;;4.50;98.00;;;;;;5049305;28;20467;-61
2020/12/15 01:58:40;;;;;;;2.80;2.00;;;4.40;98.00;;;;;;5051219;28;20454;-62
2020/12/15 02:01:06;;;;;;;1.80;1.20;;;4.50;98.00;;;;;;5049074;28;20460;-61
2020/12/15 02:03:33;;;;;;;1.30;1.20;;;4.70;98.00;;;;;;5054369;28;20997;-61
2020/12/15 02:06:01;;;;;;;1.50;1.30;;;4.70;98.00;;;;;;5053220;28;20507;-62
2020/12/15 02:08:28;;;;;;;1.20;1.00;;;4.70;98.00;;;;;;5055090;28;20452;-61
2020/12/15 02:10:56;;;;;;;1.30;1.10;;;4.90;98.00;;;;;;5052267;28;20520;-61
2020/12/15 02:13:24;;;;;;;1.20;1.00;;;4.90;98.00;;;;;;5037451;28;20461;-62
2020/12/15 02:15:51;;;;;;;1.20;1.00;;;5.00;98.00;;;;;;5053031;28;20453;-63
2020/12/15 02:18:18;;;;;;;1.30;1.30;;;4.90;98.00;;;;;;5054930;28;20461;-61
2020/12/15 02:20:44;;;;;;;1.50;1.20;;;4.80;98.00;;;;;;5052466;28;20457;-62
2020/12/15 02:23:12;;;;;;;1.20;1.00;;;4.70;98.00;;;;;;5054712;28;20482;-61
2020/12/15 02:25:38;;;;;;;1.20;1.10;;;4.80;98.00;;;;;;5052781;28;20829;-62
2020/12/15 02:28:05;;;;;;;1.20;1.00;;;4.70;98.00;;;;;;5054736;28;20514;-60
2020/12/15 02:30:32;;;;;;;1.20;0.90;;;4.50;98.00;;;;;;5052730;28;20515;-62
2020/12/15 02:32:58;;;;;;;1.50;1.30;;;4.40;98.00;;;;;;5054626;28;20507;-61
2020/12/15 02:35:25;;;;;;;1.20;1.00;;;4.40;98.00;;;;;;5051248;28;20940;-61
2020/12/15 02:37:51;;;;;;;1.50;1.27;;;4.40;98.00;;;;;;5054352;28;20865;-61
2020/12/15 02:40:19;;;;;;;1.30;1.30;;;4.40;98.00;;;;;;5052571;28;20461;-62
2020/12/15 02:42:45;;;;;;;1.20;1.10;;;4.60;98.00;;;;;;5052051;28;21157;-61
2020/12/15 02:45:12;;;;;;;3.93;1.60;;;4.60;98.00;;;;;;5054265;28;20453;-62
2020/12/15 02:47:40;;;;;;;1.37;1.10;;;4.80;98.00;;;;;;5052737;28;20485;-61
2020/12/15 02:50:07;;;;;;;1.40;1.37;;;4.80;98.00;;;;;;5054109;28;20815;-61
2020/12/15 02:52:33;;;;;;;1.20;1.00;;;4.80;98.00;;;;;;5052306;28;20457;-61
2020/12/15 02:55:00;;;;;;;1.20;1.10;;;4.90;98.00;;;;;;5054389;28;20809;-61
2020/12/15 02:57:29;;;;;;;1.20;1.00;;;5.10;98.00;;;;;;5051975;28;20454;-61
2020/12/15 02:59:56;;;;;;;2.90;1.53;;;5.20;98.00;;;;;;5054005;28;20478;-61
2020/12/15 03:02:22;;;;;;;1.20;1.00;;;5.10;98.00;;;;;;5051585;28;20486;-61
2020/12/15 03:04:49;;;;;;;1.23;1.07;;;5.00;98.00;;;;;;5053786;28;20450;-62
2020/12/15 03:07:16;;;;;;;1.20;1.10;;;5.10;98.00;;;;;;5050732;28;21018;-62
2020/12/15 03:09:42;;;;;;;1.20;1.20;;;5.00;98.00;;;;;;5054018;28;20457;-61
2020/12/15 03:12:09;;;;;;;1.20;1.20;;;4.90;98.00;;;;;;5052176;28;20449;-61
2020/12/15 03:14:36;;;;;;;1.53;1.43;;;4.80;98.00;;;;;;5053845;28;20454;-62
2020/12/15 03:17:03;;;;;;;1.80;1.30;;;4.90;98.00;;;;;;5052148;28;20830;-61
2020/12/15 03:19:29;;;;;;;1.67;1.20;;;4.70;98.00;;;;;;5053547;28;20458;-62
2020/12/15 03:21:56;;;;;;;1.30;1.00;;;4.70;98.00;;;;;;5051870;28;20457;-61
2020/12/15 03:24:22;;;;;;;1.57;1.27;;;4.90;98.00;;;;;;5052208;28;20450;-61
2020/12/15 03:26:49;;;;;;;1.23;1.10;;;4.90;98.00;;;;;;5051968;28;20449;-61
2020/12/15 03:29:15;;;;;;;1.30;1.10;;;5.10;98.00;;;;;;5053742;28;20479;-61
2020/12/15 03:31:44;;;;;;;1.33;1.20;;;5.20;98.00;;;;;;5051768;28;20458;-63
2020/12/15 03:34:11;;;;;;;2.37;2.23;;;5.20;98.00;;;;;;5053345;28;20511;-61
2020/12/15 03:36:38;;;;;;;1.37;1.20;;;5.20;98.00;;;;;;5050727;28;20531;-61
2020/12/15 03:39:06;;;;;;;1.20;1.07;;;5.00;98.00;;;;;;5053600;28;20458;-61
2020/12/15 03:41:33;;;;;;;1.20;1.03;;;4.80;98.00;;;;;;5051790;28;20519;-62
2020/12/15 03:43:59;;;;;;;1.60;1.33;;;4.80;98.00;;;;;;5053324;28;20481;-62
2020/12/15 03:46:26;;;;;;;1.47;1.30;;;4.70;98.00;;;;;;5051062;28;20511;-62
2020/12/15 03:48:54;;;;;;;1.20;1.00;;;4.60;98.00;;;;;;5053133;28;20507;-61
2020/12/15 03:51:21;;;;;;;6.40;1.67;;;4.60;98.00;;;;;;5051937;28;20520;-62
2020/12/15 03:53:47;;;;;;;1.53;1.40;;;4.70;98.00;;;;;;5053038;28;20453;-62
2020/12/15 03:56:14;;;;;;;2.00;1.60;;;4.90;98.00;;;;;;5053280;28;20859;-62
2020/12/15 03:58:41;;;;;;;1.40;1.20;;;5.00;98.00;;;;;;5050803;28;20446;-62
2020/12/15 04:01:08;;;;;;;2.30;1.50;;;4.90;98.00;;;;;;5051694;28;20957;-62
2020/12/15 04:03:34;;;;;;;1.43;1.10;;;4.90;98.00;;;;;;5050071;28;20485;-62
2020/12/15 04:06:01;;;;;;;1.20;0.90;;;4.90;98.00;;;;;;5052827;28;20527;-62
2020/12/15 04:08:28;;;;;;;3.93;1.60;;;4.90;98.00;;;;;;5050765;28;20512;-62
2020/12/15 04:10:54;;;;;;;3.00;1.30;;;4.90;98.00;;;;;;5052898;28;20458;-62
2020/12/15 04:13:21;;;;;;;4.27;1.30;;;4.80;98.00;;;;;;5050725;28;20506;-61
2020/12/15 04:15:48;;;;;;;1.37;1.20;;;4.80;98.00;;;;;;5052350;28;21037;-61
2020/12/15 04:18:15;;;;;;;1.20;1.20;;;4.70;98.00;;;;;;5049421;28;20483;-61
2020/12/15 04:20:41;;;;;;;2.37;1.67;;;4.70;98.00;;;;;;5052415;28;21010;-61
2020/12/15 04:23:11;;;;;;;1.20;1.10;;;4.60;98.00;;;;;;5050465;28;20481;-61
2020/12/15 04:25:51;;;;;;;1.23;1.10;;;4.80;98.00;;;;;;5051785;28;20456;-61
2020/12/15 04:28:19;;;;;;;2.90;1.63;;;4.70;98.00;;;;;;5050469;28;20457;-61
2020/12/15 04:30:47;;;;;;;1.20;1.00;;;4.80;98.00;;;;;;5052192;28;20480;-62
2020/12/15 04:33:14;;;;;;;1.30;1.20;;;4.90;98.00;;;;;;5050311;28;20480;-61
2020/12/15 04:35:40;;;;;;;1.20;1.00;;;4.80;98.00;;;;;;5052216;28;20618;-61
2020/12/15 04:38:07;;;;;;;4.07;2.00;;;4.70;98.00;;;;;;5050281;28;20458;-61
2020/12/15 04:40:37;;;;;;;1.57;1.40;;;4.80;98.00;;;;;;5051908;28;20456;-61
2020/12/15 04:43:06;;;;;;;1.20;1.07;;;4.90;98.00;;;;;;5050207;28;20571;-61
2020/12/15 04:45:35;;;;;;;1.97;1.50;;;5.00;98.00;;;;;;5052378;28;20458;-61
2020/12/15 04:48:06;;;;;;;2.00;1.20;;;5.00;98.00;;;;;;5050253;28;20962;-61
2020/12/15 04:50:35;;;;;;;1.20;1.00;;;5.00;98.00;;;;;;5052464;28;20507;-61
2020/12/15 04:53:17;;;;;;;1.20;1.10;;;5.00;98.00;;;;;;5050357;28;20477;-63
2020/12/15 04:55:49;;;;;;;1.83;1.40;;;4.90;98.00;;;;;;5052055;28;20561;-61
2020/12/15 04:58:20;;;;;;;1.70;1.63;;;4.80;98.00;;;;;;5050075;28;20511;-63
2020/12/15 05:00:46;;;;;;;1.20;1.10;;;4.70;98.00;;;;;;5052055;28;20515;-62
2020/12/15 05:03:16;;;;;;;2.03;1.23;;;4.70;98.00;;;;;;5049815;28;20508;-62
2020/12/15 05:05:45;;;;;;;1.37;1.07;;;4.80;98.00;;;;;;5051993;28;20454;-62
2020/12/15 05:10:57;;;;;;;1.20;1.07;;;4.70;98.00;;;;;;5051687;28;20846;-62
2020/12/15 05:13:23;;;;;;;3.40;1.67;;;4.70;98.00;;;;;;5049644;28;20493;-62
2020/12/15 05:15:56;;;;;;;1.50;1.20;;;4.70;98.00;;;;;;5050516;28;20516;-62
2020/12/15 05:18:23;;;;;;;1.73;1.10;;;4.70;98.00;;;;;;5049780;28;20833;-61
2020/12/15 05:20:49;;;;;;;2.90;1.53;;;4.70;98.00;;;;;;5051477;28;20504;-62
2020/12/15 05:23:19;;;;;;;1.20;1.00;;;4.70;98.00;;;;;;5049433;28;20492;-61
2020/12/15 05:25:46;;;;;;;1.20;1.00;;;4.80;98.00;;;;;;5051499;28;20796;-61
2020/12/15 05:28:15;;;;;;;1.57;1.30;;;4.90;98.00;;;;;;5049012;28;20534;-62
2020/12/15 05:30:42;;;;;;;4.43;1.30;;;4.90;98.00;;;;;;5051359;28;20449;-62
2020/12/15 05:33:15;;;;;;;1.20;1.10;;;5.30;98.00;;;;;;5049396;28;20475;-62
2020/12/15 05:35:41;;;;;;;1.20;1.00;;;5.50;98.00;;;;;;5051360;28;20496;-61
2020/12/15 05:38:09;;;;;;;1.20;1.00;;;5.60;98.00;;;;;;5048678;28;20461;-62
2020/12/15 05:40:39;;;;;;;3.23;1.53;;;5.50;98.00;;;;;;5051289;28;21022;-61
2020/12/15 05:43:06;;;;;;;1.20;1.00;;;5.40;98.00;;;;;;5049115;28;20482;-61
2020/12/15 05:45:35;;;;;;;1.20;1.20;;;5.30;98.00;;;;;;5051093;28;20445;-62
2020/12/15 05:48:02;;;;;;;1.30;1.10;;;5.20;98.00;;;;;;5049476;28;20805;-62
2020/12/15 05:50:30;;;;;;;1.17;1.03;;;5.20;98.00;;;;;;5051104;28;21025;-62
2020/12/15 05:52:58;;;;;;;2.43;1.40;;;5.10;98.00;;;;;;5051218;28;20454;-61
2020/12/15 05:55:24;;;;;;;1.20;1.20;;;5.10;98.00;;;;;;5050317;28;20504;-61
2020/12/15 05:57:51;;;;;;;1.90;1.30;;;5.10;98.00;;;;;;5050928;28;20503;-62
2020/12/15 06:00:19;;;;;;;1.20;1.00;;;5.00;98.00;;;;;;5049074;28;20457;-62
2020/12/15 06:02:57;;;;;;;1.20;1.10;;;5.10;98.00;;;;;;5050664;28;20527;-61
2020/12/15 06:05:26;;;;;;;1.60;1.20;;;5.20;98.00;;;;;;5049267;28;20462;-61
2020/12/15 06:07:53;;;;;;;1.20;1.10;;;5.10;98.00;;;;;;5050085;28;20465;-62
2020/12/15 06:10:25;;;;;;;1.20;1.10;;;5.00;98.00;;;;;;5049507;28;20453;-62
2020/12/15 06:12:53;;;;;;;1.20;1.00;;;5.10;98.00;;;;;;5050187;28;20529;-61
2020/12/15 06:15:20;;;;;;;1.10;0.90;;;5.00;98.00;;;;;;5049134;28;20940;-63
2020/12/15 06:17:49;;;;;;;1.20;1.00;;;5.00;98.00;;;;;;5051154;28;20523;-63
2020/12/15 06:20:19;;;;;;;1.20;1.20;;;5.00;98.00;;;;;;5048928;28;20803;-62
2020/12/15 06:22:47;;;;;;;1.20;1.00;;;5.10;98.00;;;;;;5050734;28;20496;-62
2020/12/15 06:25:24;;;;;;;1.20;1.10;;;5.00;98.00;;;;;;5049152;28;20831;-62
2020/12/15 06:28:00;;;;;;;1.30;1.10;;;5.00;98.00;;;;;;5050814;28;20483;-61
2020/12/15 06:30:29;;;;;;;2.80;1.90;;;5.00;98.00;;;;;;5047884;28;20455;-61
2020/12/15 06:33:00;;;;;;;1.20;1.00;;;5.00;98.00;;;;;;5050826;28;20797;-62
2020/12/15 06:35:28;;;;;;;1.60;1.30;;;5.00;98.00;;;;;;5048993;28;20837;-62
2020/12/15 06:37:55;;;;;;;1.20;1.13;;;5.00;98.00;;;;;;5050739;28;20461;-61
2020/12/15 06:40:22;;;;;;;1.50;1.20;;;5.10;98.00;;;;;;5048857;28;20465;-62
2020/12/15 06:42:49;;;;;;;1.20;1.00;;;5.10;98.00;;;;;;5050583;28;20513;-62
2020/12/15 06:45:16;;;;;;;1.93;1.47;;;5.30;98.00;;;;;;5048566;28;20465;-61
2020/12/15 06:47:42;;;;;;;1.20;0.90;;;5.40;98.00;;;;;;5050233;28;20466;-62
2020/12/15 06:50:19;;;;;;;1.53;1.50;;;5.50;98.00;;;;;;5051721;28;20468;-61
2020/12/15 06:52:46;;;;;;;1.57;1.30;;;5.40;98.00;;;;;;5036059;28;20477;-62
2020/12/15 06:55:13;;;;;;;1.20;1.10;;;5.40;98.00;;;;;;5051816;28;20944;-61
2020/12/15 06:57:40;;;;;;;3.33;1.30;;;5.40;98.00;;;;;;5053911;28;20462;-62
2020/12/15 07:00:08;;;;;;;1.30;1.20;;;5.30;98.00;;;;;;5052021;28;20469;-62
2020/12/15 07:02:35;;;;;;;1.20;1.10;;;5.30;98.00;;;;;;5053892;28;20477;-61
2020/12/15 07:05:23;;;;;;;1.80;1.70;;;5.40;98.00;;;;;;5052089;28;20476;-61
2020/12/15 07:07:51;;;;;;;1.30;1.10;;;5.40;98.00;;;;;;5052529;28;20544;-61
2020/12/15 07:10:19;;;;;;;1.30;1.10;;;5.40;98.00;;;;;;5051790;28;20458;-61
2020/12/15 07:12:48;;;;;;;1.97;1.20;;;5.40;98.00;;;;;;5053741;28;20874;-61
2020/12/15 07:15:16;;;;;;;1.37;1.20;;;5.30;98.00;;;;;;5051381;28;21018;-61
2020/12/15 07:17:45;;;;;;;1.93;1.63;;;5.20;98.00;;;;;;5052223;28;20556;-61
2020/12/15 07:20:12;;;;;;;1.20;1.10;;;5.20;98.00;;;;;;5051540;28;20466;-61
2020/12/15 07:22:41;;;;;;;1.20;1.00;;;5.20;98.00;;;;;;5053497;28;21237;-61
2020/12/15 07:25:08;;;;;;;1.20;1.00;;;5.30;98.00;;;;;;5051639;28;20541;-61
2020/12/15 07:27:36;;;;;;;1.20;1.10;;;5.30;98.00;;;;;;5053311;28;20462;-60
2020/12/15 07:30:06;;;;;;;2.73;1.57;;;5.40;98.00;;;;;;5051191;28;20463;-61
2020/12/15 07:32:36;;;;;;;1.20;1.00;;;5.50;98.00;;;;;;5053282;28;20466;-60
2020/12/15 07:35:05;;;;;;;3.00;1.63;;;5.50;98.00;;;;;;5051507;28;20537;-60
2020/12/15 07:37:34;;;;;;;1.60;1.47;;;5.60;98.00;;;;;;5053450;28;20446;-61
2020/12/15 07:40:08;;;;;;;1.20;1.00;;;5.50;98.00;;;;;;5051398;28;20515;-61
2020/12/15 07:42:35;;;;;;;1.20;1.00;;;5.40;98.00;;;;;;5053470;28;20454;-61
2020/12/15 07:45:08;;;;;;;1.20;1.10;;;5.50;98.00;;;;;;5051063;28;20466;-61
2020/12/15 07:47:42;;;;;;;1.60;1.47;;;5.50;98.00;;;;;;5053499;28;20446;-61
2020/12/15 07:50:09;;;;;;;1.20;1.10;;;5.60;98.00;;;;;;5051158;28;20845;-61
2020/12/15 07:52:39;;;;;;;1.20;1.10;;;5.70;98.00;;;;;;5053095;28;21086;-60
2020/12/15 07:55:09;;;;;;;1.20;1.00;;;5.50;98.00;;;;;;5050836;28;20450;-61
2020/12/15 07:57:37;;;;;;;1.30;1.30;;;5.50;98.00;;;;;;5053071;28;20928;-60
2020/12/15 08:00:07;;;;;;;1.30;1.17;;;5.50;98.00;;;;;;5049924;28;20461;-61
2020/12/15 08:02:34;;;;;;;1.97;1.87;;;5.50;98.00;;;;;;5052751;28;20468;-60
2020/12/15 08:05:13;;;;;;;1.40;1.20;;;5.50;98.00;;;;;;5049570;28;20450;-61
2020/12/15 08:07:47;;;;;;;1.20;1.10;;;5.60;98.00;;;;;;5052793;28;20974;-60
2020/12/15 08:10:25;;;;;;;2.37;1.43;;;5.50;98.00;;;;;;5050504;28;20500;-60
2020/12/15 08:12:52;;;;;;;1.20;1.00;;;5.40;98.00;;;;;;5052654;28;20940;-60
2020/12/15 08:15:19;;;;;;;1.30;1.10;;;5.50;98.00;;;;;;5050428;28;20449;-60
2020/12/15 08:17:49;;;;;;;1.20;1.20;;;5.50;98.00;;;;;;5051515;28;20461;-62
2020/12/15 08:20:18;;;;;;;1.50;1.20;;;5.50;98.00;;;;;;5049337;28;20454;-62
2020/12/15 08:22:46;;;;;;;1.20;1.10;;;5.50;98.00;;;;;;5052028;28;20485;-60
2020/12/15 08:25:14;;;;;;;1.20;1.00;;;5.50;98.00;;;;;;5049445;28;20461;-61
2020/12/15 08:27:51;;;;;;;1.10;1.10;;;5.50;98.00;;;;;;5051936;28;20458;-61
2020/12/15 08:30:18;;;;;;;1.23;1.00;;;;;;;;;;5049148;28;20453;-62
2020/12/15 08:32:47;;;;;;;1.50;1.33;;;7.00;98.00;;;;;;5051724;28;20470;-63
2020/12/15 08:35:21;;;;;;;1.50;1.40;;;8.30;98.00;;;;;;5049381;28;20464;-62
2020/12/15 08:37:52;;;;;;;1.50;1.20;;;8.70;98.00;;;;;;5051382;28;20468;-62
2020/12/15 08:40:19;;;;;;;1.20;1.10;;;8.60;98.00;;;;;;5049446;28;20480;-63
2020/12/15 08:42:48;;;;;;;1.63;1.47;;;8.50;98.00;;;;;;5051534;28;20487;-63
2020/12/15 08:45:16;;;;;;;1.20;1.10;;;8.20;98.00;;;;;;5049481;28;21256;-61
2020/12/15 08:47:46;;;;;;;1.20;1.10;;;8.00;98.00;;;;;;5051728;28;20465;-60
2020/12/15 08:50:15;;;;;;;1.30;1.23;;;7.50;98.00;;;;;;5048998;28;20534;-61
2020/12/15 08:52:42;;;;;;;1.50;1.23;;;7.20;98.00;;;;;;5051439;28;20455;-62
2020/12/15 08:55:09;;;;;;;1.77;1.37;;;7.10;98.00;;;;;;5050267;28;20965;-61
2020/12/15 08:57:36;;;;;;;2.33;1.60;;;7.00;98.00;;;;;;5051418;28;20453;-61
2020/12/15 09:00:14;;;;;;;1.60;1.53;;;6.80;98.00;;;;;;5051192;28;20464;-63
2020/12/15 09:02:42;;;;;;;1.97;1.60;;;6.80;98.00;;;;;;5050032;28;20956;-62
2020/12/15 09:05:10;;;;;;;2.03;1.40;;;6.70;98.00;;;;;;5051107;28;20530;-62
2020/12/15 09:07:37;;;;;;;2.27;1.67;;;6.60;98.00;;;;;;5048848;28;20817;-63
2020/12/15 09:10:14;;;;;;;1.40;1.10;;;6.60;98.00;;;;;;5050742;28;20968;-63
2020/12/15 09:12:45;;;;;;;1.60;1.27;;;6.60;98.00;;;;;;5048907;28;20877;-60
2020/12/15 09:15:14;;;;;;;1.40;1.27;;;6.60;98.00;;;;;;5051036;28;20992;-61
2020/12/15 09:17:41;;;;;;;1.20;1.00;;;6.50;98.00;;;;;;5049120;28;20465;-62
2020/12/15 09:20:09;;;;;;;5.43;1.60;;;6.40;98.00;;;;;;5050580;28;20477;-61
2020/12/15 09:22:37;;;;;;;1.10;1.00;;;6.40;98.00;;;;;;5048511;28;20459;-63
2020/12/15 09:25:13;;;;;;;1.67;1.30;;;7.20;98.00;;;;;;5050937;28;20463;-63
2020/12/15 09:27:39;;;;;;;1.50;1.27;;;7.80;98.00;;;;;;5048912;28;20462;-63
2020/12/15 09:30:06;;;;;;;1.30;1.03;;;7.90;98.00;;;;;;5050494;28;20457;-62
2020/12/15 09:32:34;;;;;;;2.70;1.73;;;7.80;98.00;;;;;;5048591;28;20450;-62
2020/12/15 09:35:00;;;;;;;1.50;1.33;;;7.60;98.00;;;;;;5050508;28;21030;-62
2020/12/15 09:37:27;;;;;;;2.07;1.53;;;7.40;98.00;;;;;;5048894;28;21083;-62
2020/12/15 09:39:53;;;;;;;1.73;1.30;;;7.30;98.00;;;;;;5050553;28;20461;-61
2020/12/15 09:42:20;;;;;;;1.20;1.00;;;7.10;98.00;;;;;;5048892;28;20462;-61
2020/12/15 09:44:47;;;;;;;6.23;1.60;;;7.00;98.00;;;;;;5048898;28;20504;-61
2020/12/15 09:47:14;;;;;;;1.63;1.33;;;7.10;98.00;;;;;;5048448;28;20457;-61
2020/12/15 09:49:41;;;;;;;1.27;1.03;;;7.10;98.00;;;;;;5050662;28;20512;-62
2020/12/15 09:52:08;;;;;;;2.17;1.73;;;7.30;98.00;;;;;;5048245;28;20998;-61
2020/12/15 09:54:34;;;;;;;1.57;1.30;;;7.30;98.00;;;;;;5050406;28;20482;-61
2020/12/15 09:57:01;;;;;;;2.53;1.70;;;7.40;98.00;;;;;;5049196;28;20471;-61
2020/12/15 09:59:27;;;;;;;2.17;1.33;;;7.30;98.00;;;;;;5051160;28;20475;-62
2020/12/15 10:01:54;;;;;;;4.93;2.63;;;7.20;98.00;;;;;;5049217;28;20493;-61
2020/12/15 10:04:20;;;;;;;1.40;1.40;;;7.10;98.00;;;;;;5051026;28;20489;-61
2020/12/15 10:06:48;;;;;;;1.20;1.00;;;7.30;98.00;;;;;;5049135;28;20461;-62
2020/12/15 10:09:15;;;;;;;1.50;1.30;;;7.40;98.00;;;;;;5051047;28;20461;-62
2020/12/15 10:11:43;;;;;;;1.30;1.20;;;7.60;98.00;;;;;;5048818;28;20464;-61
2020/12/15 10:14:09;;;;;;;2.57;1.53;;;7.70;98.00;;;;;;5051072;28;20452;-62
2020/12/15 10:16:36;;;;;;;1.87;1.30;;;7.70;98.00;;;;;;5048885;28;20462;-61
2020/12/15 10:19:03;;;;;;;1.40;1.10;;;7.60;98.00;;;;;;5049380;28;20496;-61
2020/12/15 10:21:30;;;;;;;1.50;1.50;;;7.60;98.00;;;;;;5049168;28;20453;-62
2020/12/15 10:23:58;;;;;;;1.30;1.20;;;7.60;98.00;;;;;;5051566;28;20490;-61
2020/12/15 10:26:25;;;;;;;1.50;1.20;;;7.60;98.00;;;;;;5054815;28;20461;-61
2020/12/15 10:28:53;;;;;;;1.83;1.30;;;7.50;98.00;;;;;;5052632;28;20452;-61
2020/12/15 10:31:20;;;;;;;1.40;1.30;;;7.60;98.00;;;;;;5054638;28;20456;-61
2020/12/15 10:33:47;;;;;;;1.30;1.17;;;7.80;98.00;;;;;;5052272;28;20484;-61
2020/12/15 10:36:15;;;;;;;1.83;1.53;;;7.60;98.00;;;;;;5054646;28;20851;-61
2020/12/15 10:38:43;;;;;;;1.97;1.63;;;7.50;98.00;;;;;;5051759;28;20493;-61
2020/12/15 10:41:10;;;;;;;2.00;1.23;;;7.40;98.00;;;;;;5053422;28;20451;-60
2020/12/15 10:43:37;;;;;;;2.20;1.47;;;7.40;98.00;;;;;;5051001;28;20506;-61
2020/12/15 10:46:04;;;;;;;1.37;1.33;;;7.40;98.00;;;;;;5053577;28;20458;-60
2020/12/15 10:48:31;;;;;;;2.23;1.40;;;7.40;98.00;;;;;;5051818;28;20468;-61
2020/12/15 10:50:57;;;;;;;1.20;1.10;;;7.30;98.00;;;;;;5053785;28;20459;-60
2020/12/15 10:53:25;;;;;;;2.90;1.83;;;7.30;98.00;;;;;;5051655;28;20461;-61
2020/12/15 10:55:52;;;;;;;1.37;1.20;;;7.20;98.00;;;;;;5053303;28;20948;-60
2020/12/15 10:58:19;;;;;;;1.20;0.90;;;7.20;98.00;;;;;;5051719;28;20459;-61
2020/12/15 11:00:46;;;;;;;2.53;1.97;;;7.30;98.00;;;;;;5053379;28;20479;-60
2020/12/15 11:03:15;;;;;;;1.40;1.30;;;7.30;98.00;;;;;;5051120;28;20513;-62
2020/12/15 11:05:41;;;;;;;1.50;1.20;;;7.40;98.00;;;;;;5052201;28;20879;-63
2020/12/15 11:08:08;;;;;;;2.53;1.60;;;7.50;98.00;;;;;;5051634;28;20527;-62
2020/12/15 11:10:34;;;;;;;1.50;1.40;;;7.50;98.00;;;;;;5052983;28;20802;-61
2020/12/15 11:13:02;;;;;;;1.90;1.80;;;7.70;98.00;;;;;;5051230;28;20476;-61
2020/12/15 11:15:30;;;;;;;1.77;1.77;;;7.80;98.00;;;;;;5053038;28;20465;-62
2020/12/15 11:17:59;;;;;;;1.20;1.10;;;7.80;98.00;;;;;;5051400;28;21100;-61
2020/12/15 11:20:26;;;;;;;1.30;1.30;;;7.80;98.00;;;;;;5052872;28;20871;-62
2020/12/15 11:22:53;;;;;;;1.80;1.70;;;8.00;98.00;;;;;;5050883;28;20457;-61
2020/12/15 11:25:19;;;;;;;1.53;1.40;;;7.90;98.00;;;;;;5052983;28;20458;-61
2020/12/15 11:27:46;;;;;;;1.70;1.10;;;7.90;98.00;;;;;;5051053;28;20447;-61
2020/12/15 11:30:12;;;;;;;1.30;1.20;;;7.90;98.00;;;;;;5051418;28;20605;-62
2020/12/15 11:32:40;;;;;;;1.30;1.17;;;7.90;98.00;;;;;;5050881;28;20452;-61
2020/12/15 11:35:07;;;;;;;3.30;2.63;;;8.00;98.00;;;;;;5052736;28;20524;-61
2020/12/15 11:37:38;;;;;;;1.60;1.30;;;8.00;98.00;;;;;;5052207;28;20462;-61
2020/12/15 11:40:04;;;;;;;2.03;1.60;;;8.10;98.00;;;;;;5053008;28;20484;-61
2020/12/15 11:42:31;;;;;;;1.50;1.40;;;8.10;98.00;;;;;;5050408;28;20454;-62
2020/12/15 11:44:57;;;;;;;1.40;1.30;;;8.10;98.00;;;;;;5052717;28;20483;-63
2020/12/15 11:47:24;;;;;;;1.50;1.20;;;8.30;98.00;;;;;;5052537;28;20848;-61
2020/12/15 11:49:52;;;;;;;1.60;1.50;;;8.20;98.00;;;;;;5050507;28;21002;-61
2020/12/15 11:52:18;;;;;;;4.53;2.63;;;8.30;98.00;;;;;;5052504;28;20582;-61
2020/12/15 11:54:46;;;;;;;2.37;2.17;;;8.40;98.00;;;;;;5050691;28;20463;-60
2020/12/15 11:57:14;;;;;;;1.60;1.57;;;8.50;98.00;;;;;;5052984;28;20485;-62
2020/12/15 11:59:40;;;;;;;1.73;1.53;;;8.60;98.00;;;;;;5050708;28;20566;-61
2020/12/15 12:02:07;;;;;;;3.43;2.23;;;8.50;98.00;;;;;;5052676;28;20481;-61
2020/12/15 12:04:34;;;;;;;1.43;1.37;;;8.60;98.00;;;;;;5050099;28;20560;-61
2020/12/15 12:07:05;;;;;;;1.60;1.23;;;8.60;98.00;;;;;;5052465;28;20458;-61
2020/12/15 12:09:32;;;;;;;2.40;1.50;;;8.60;98.00;;;;;;5050270;28;20975;-62
2020/12/15 12:11:59;;;;;;;1.20;1.20;;;8.60;98.00;;;;;;5052484;28;20458;-61
2020/12/15 12:14:26;;;;;;;1.80;1.30;;;8.60;98.00;;;;;;5050551;28;20495;-61
2020/12/15 12:16:53;;;;;;;1.20;1.10;;;8.60;98.00;;;;;;5052361;28;20462;-62
2020/12/15 12:19:20;;;;;;;2.47;1.83;;;8.70;98.00;;;;;;5050475;28;20467;-61
2020/12/15 12:21:46;;;;;;;2.13;1.57;;;8.80;98.00;;;;;;5052058;28;20454;-60
2020/12/15 12:24:15;;;;;;;4.30;1.77;;;8.80;98.00;;;;;;5050033;28;20491;-61
2020/12/15 12:26:41;;;;;;;2.07;1.30;;;8.70;98.00;;;;;;5052086;28;20805;-62
2020/12/15 12:29:08;;;;;;;1.30;1.30;;;8.70;98.00;;;;;;5049809;28;21233;-61
2020/12/15 12:31:35;;;;;;;1.43;1.37;;;8.70;98.00;;;;;;5050406;28;20535;-61
2020/12/15 12:34:02;;;;;;;2.37;1.77;;;8.90;98.00;;;;;;5049510;28;20502;-60
2020/12/15 12:36:31;;;;;;;1.60;1.47;;;8.90;98.00;;;;;;5051602;28;20461;-61
2020/12/15 12:38:58;;;;;;;1.30;1.30;;;9.00;98.00;;;;;;5049671;28;20539;-61
2020/12/15 12:41:25;;;;;;;1.50;1.30;;;9.00;98.00;;;;;;5051554;28;20458;-61
2020/12/15 12:43:53;;;;;;;6.10;2.53;;;8.90;98.00;;;;;;5049107;28;20484;-61
2020/12/15 12:46:19;;;;;;;1.20;1.13;;;8.80;98.00;;;;;;5049759;28;20479;-61
2020/12/15 12:48:47;;;;;;;1.93;1.57;;;8.80;98.00;;;;;;5049318;28;20458;-61
2020/12/15 12:51:17;;;;;;;2.00;1.50;;;8.80;98.00;;;;;;5051425;28;20450;-62
2020/12/15 12:53:49;;;;;;;1.50;1.47;;;8.80;98.00;;;;;;5048963;28;20464;-61
2020/12/15 12:56:15;;;;;;;1.63;1.53;;;9.10;98.00;;;;;;5050201;28;20526;-61
2020/12/15 12:58:44;;;;;;;1.40;1.30;;;9.30;98.00;;;;;;5049745;28;20782;-61
2020/12/15 13:01:10;;;;;;;3.13;1.60;;;9.30;98.00;;;;;;5051394;28;20463;-61
2020/12/15 13:03:55;;;;;;;2.13;1.40;;;9.20;98.00;;;;;;5048823;28;20485;-63